Time,TemperatureF,DewpointF,PressureIn,WindDirection,WindDirectionDegrees,WindSpeedMPH,WindSpeedGustMPH,Humidity,HourlyPrecipIn,Conditions,Clouds,dailyrainin,SoftwareType,DateUTC
2017-02-23 00:04:00,60.8,57.2,29.80,West,275,0.0,6.0,88,0.00,,---,0.06,VWS V15.00,2017-02-23 05:04:00,
2017-02-23 00:14:00,60.7,57.1,29.80,SW,220,0.0,2.0,88,0.00,,---,0.06,VWS V15.00,2017-02-23 05:14:00,
2017-02-23 00:24:00,60.8,57.2,29.80,NNW,333,0.0,4.0,88,0.00,,---,0.06,VWS V15.00,2017-02-23 05:24:00,
2017-02-23 00:34:00,60.7,57.1,29.80,West,260,3.0,4.0,88,0.00,,---,0.06,VWS V15.00,2017-02-23 05:34:00,
2017-02-23 00:44:00,60.8,57.2,29.80,WSW,246,2.0,5.0,88,0.00,,---,0.06,VWS V15.00,2017-02-23 05:44:00,
2017-02-23 00:54:00,60.8,57.2,29.80,SW,229,4.0,4.0,88,0.00,,---,0.06,VWS V15.00,2017-02-23 05:54:00,
2017-02-23 01:04:00,60.7,57.1,29.80,South,182,0.0,6.0,88,0.00,,---,0.06,VWS V15.00,2017-02-23 06:04:00,
2017-02-23 01:14:00,60.5,56.9,29.80,West,279,1.0,4.0,88,0.00,,---,0.06,VWS V15.00,2017-02-23 06:14:00,
2017-02-23 01:24:00,60.3,56.7,29.79,WSW,258,0.0,4.0,88,0.00,,---,0.06,VWS V15.00,2017-02-23 06:24:00,
2017-02-23 01:34:00,60.0,56.8,29.80,NW,318,0.0,3.0,89,0.00,,---,0.06,VWS V15.00,2017-02-23 06:34:00,
2017-02-23 01:44:00,59.9,56.7,29.81,NW,323,0.0,3.0,89,0.00,,---,0.06,VWS V15.00,2017-02-23 06:44:00,
2017-02-23 01:54:00,59.8,56.6,29.81,NW,325,0.0,2.0,89,0.00,,---,0.06,VWS V15.00,2017-02-23 06:54:00,
2017-02-23 02:04:00,59.6,56.7,29.81,WSW,238,0.0,2.0,90,0.00,,---,0.06,VWS V15.00,2017-02-23 07:04:00,
2017-02-23 02:14:00,59.4,56.5,29.81,WNW,286,0.0,2.0,90,0.00,,---,0.06,VWS V15.00,2017-02-23 07:14:00,
2017-02-23 02:24:00,59.2,56.3,29.81,WNW,286,0.0,0.0,90,0.00,,---,0.06,VWS V15.00,2017-02-23 07:24:00,
2017-02-23 02:34:00,58.8,55.9,29.81,WNW,286,0.0,0.0,90,0.00,,---,0.00,VWS V15.00,2017-02-23 07:34:00,
2017-02-23 02:44:00,58.5,55.9,29.81,WNW,286,0.0,1.0,91,0.00,,---,0.00,VWS V15.00,2017-02-23 07:44:00,
2017-02-23 02:54:00,58.2,55.6,29.81,WNW,286,0.0,1.0,91,0.00,,---,0.00,VWS V15.00,2017-02-23 07:54:00,
2017-02-23 03:04:00,58.1,55.8,29.81,WNW,286,0.0,0.0,92,0.00,,---,0.00,VWS V15.00,2017-02-23 08:04:00,
2017-02-23 03:14:00,58.1,55.8,29.81,WNW,283,0.0,1.0,92,0.00,,---,0.00,VWS V15.00,2017-02-23 08:14:00,
2017-02-23 03:24:00,58.1,55.8,29.81,WNW,283,0.0,0.0,92,0.00,,---,0.00,VWS V15.00,2017-02-23 08:24:00,
2017-02-23 03:34:00,58.0,55.7,29.82,WNW,283,0.0,0.0,92,0.00,,---,0.00,VWS V15.00,2017-02-23 08:34:00,
2017-02-23 03:44:00,57.8,55.5,29.81,WNW,283,0.0,1.0,92,0.00,,---,0.00,VWS V15.00,2017-02-23 08:44:00,
2017-02-23 03:54:00,57.7,55.4,29.82,WNW,283,0.0,0.0,92,0.00,,---,0.00,VWS V15.00,2017-02-23 08:54:00,
2017-02-23 04:04:00,58.0,55.7,29.81,NNW,333,0.0,2.0,92,0.00,,---,0.00,VWS V15.00,2017-02-23 09:04:00,
2017-02-23 04:14:00,58.2,55.9,29.81,SSW,212,0.0,2.0,92,0.00,,---,0.00,VWS V15.00,2017-02-23 09:14:00,
2017-02-23 04:24:00,58.5,56.2,29.81,SSW,202,0.0,1.0,92,0.00,,---,0.00,VWS V15.00,2017-02-23 09:24:00,
2017-02-23 04:34:00,58.9,56.6,29.81,SSW,208,0.0,1.0,92,0.00,,---,0.00,VWS V15.00,2017-02-23 09:34:00,
2017-02-23 04:44:00,59.2,56.6,29.82,SSW,208,0.0,2.0,91,0.00,,---,0.00,VWS V15.00,2017-02-23 09:44:00,
2017-02-23 04:54:00,59.4,56.8,29.82,WSW,238,0.0,3.0,91,0.00,,---,0.00,VWS V15.00,2017-02-23 09:54:00,
2017-02-23 05:04:00,59.5,56.6,29.82,South,190,0.0,3.0,90,0.00,,---,0.00,VWS V15.00,2017-02-23 10:04:00,